Borrego Springs, California
Current Conditions -  °F | °C
As of 7:52 PM on Saturday 24 Jan 2015 (Local Time) from KTRM Reporting Station
Clear Clear  
Wind Chill: 58°   Ceiling: Unl
Heat Index: 58°   Visibility: 10mi
Dew Point: 25°   Wind: 7mph
Humidity: 28%   Direction: 360°N
Pressure: 30.06"   Gusts: NA
Location:  33.26°N, 116.38°W
Report Text: KTRM 250352Z AUTO 36006KT 10SM CLR 14/M04 A3006 RMK AO2 SLP178 T01441039 TSNO
Loading
Personal Weather Stations






























Interactive Weather Map New forecast layout! Learn more

10-Day Weather Forecast

Advertisements
Track Severe Weather on mobile